createdAt,value
2023-01-25T00:02:11.695Z,101051.13
2023-01-25T00:07:20.763Z,101045.98
2023-01-25T00:12:28.128Z,101052.42
2023-01-25T00:17:35.574Z,101041.06
2023-01-25T00:22:43.772Z,101040.85
2023-01-25T00:27:51.223Z,101043.83
2023-01-25T00:33:03.786Z,101045.95
2023-01-25T00:38:30.232Z,101037.48
2023-01-25T00:43:37.301Z,101040.86
2023-01-25T00:48:42.914Z,101032.48
2023-01-25T00:53:50.011Z,101030.64
2023-01-25T00:58:57.078Z,101021.42
2023-01-25T01:04:05.749Z,101016.02
2023-01-25T01:09:18.708Z,101014.16
2023-01-25T01:19:35.760Z,101009.52
2023-01-25T01:24:43.776Z,100999.04
2023-01-25T01:29:51.990Z,100978.69
2023-01-25T01:34:59.768Z,100968.95
2023-01-25T01:40:08.457Z,100963.60
2023-01-25T01:45:46.114Z,100957.67
2023-01-25T01:50:59.025Z,100962.05
2023-01-25T01:56:12.848Z,100958.11
2023-01-25T02:01:20.688Z,100945.95
2023-01-25T02:06:35.213Z,100936.38
2023-01-25T02:11:42.851Z,100926.09
2023-01-25T02:16:50.372Z,100922.44
2023-01-25T02:22:00.967Z,100927.45
2023-01-25T02:27:08.590Z,100925.71
2023-01-25T02:32:16.473Z,100929.15
2023-01-25T02:37:23.766Z,100930.61
2023-01-25T02:42:35.979Z,100932.52
2023-01-25T02:47:43.269Z,100932.44
2023-01-25T02:52:50.487Z,100932.36
2023-01-25T02:57:56.784Z,100931.20
2023-01-25T03:03:05.315Z,100919.48
2023-01-25T03:08:12.868Z,100918.98
2023-01-25T03:13:20.431Z,100917.78
2023-01-25T03:18:28.176Z,100920.00
2023-01-25T03:23:35.638Z,100920.78
2023-01-25T03:28:43.993Z,100922.19
2023-01-25T03:33:51.297Z,100919.96
2023-01-25T03:38:58.609Z,100914.41
2023-01-25T03:44:04.138Z,100909.34
2023-01-25T03:49:11.606Z,100902.45
2023-01-25T03:54:18.900Z,100898.04
2023-01-25T03:59:26.048Z,100900.77
2023-01-25T04:04:31.602Z,100896.54
2023-01-25T04:09:38.828Z,100895.73
2023-01-25T04:20:18.111Z,100881.92
2023-01-25T04:25:25.609Z,100874.39
2023-01-25T04:30:33.311Z,100871.55
2023-01-25T04:35:41.092Z,100868.21
2023-01-25T04:40:48.970Z,100869.23
2023-01-25T04:45:56.657Z,100866.39
2023-01-25T04:51:03.925Z,100864.52
2023-01-25T04:56:10.412Z,100860.21
2023-01-25T05:01:18.278Z,100856.48
2023-01-25T05:06:25.800Z,100853.33
2023-01-25T05:11:32.983Z,100853.29
2023-01-25T05:16:39.130Z,100849.79
2023-01-25T05:22:01.693Z,100848.68
2023-01-25T05:27:09.933Z,100843.86
2023-01-25T05:32:19.654Z,100845.13
2023-01-25T05:37:26.944Z,100841.87
2023-01-25T05:42:34.204Z,100839.38
2023-01-25T05:47:39.720Z,100840.02
2023-01-25T05:52:48.508Z,100835.67
2023-01-25T05:57:58.355Z,100835.52
2023-01-25T06:03:05.857Z,100840.98
2023-01-25T06:08:14.041Z,100838.44
2023-01-25T06:13:22.567Z,100844.98
2023-01-25T06:18:31.408Z,100840.94
2023-01-25T06:23:38.908Z,100840.96
2023-01-25T06:28:47.455Z,100841.70
2023-01-25T06:33:55.430Z,100835.86
2023-01-25T06:39:03.465Z,100831.09
2023-01-25T06:44:11.633Z,100826.62
2023-01-25T06:59:00.327Z,100822.85
2023-01-25T07:04:08.134Z,100818.81
2023-01-25T07:09:16.640Z,100812.10
2023-01-25T07:14:23.784Z,100809.86
2023-01-25T07:19:29.548Z,100816.83
2023-01-25T07:24:37.267Z,100808.48
2023-01-25T07:29:44.877Z,100806.35
2023-01-25T07:34:52.268Z,100812.31
2023-01-25T07:39:59.375Z,100809.73
2023-01-25T07:45:08.353Z,100800.45
2023-01-25T07:50:16.674Z,100787.63
2023-01-25T07:55:24.360Z,100780.36
2023-01-25T08:00:31.984Z,100778.75
2023-01-25T08:05:40.224Z,100778.58
2023-01-25T08:10:48.451Z,100773.70
2023-01-25T08:15:59.189Z,100771.54
2023-01-25T08:21:07.693Z,100767.70
2023-01-25T08:26:17.169Z,100763.76
2023-01-25T08:31:26.182Z,100756.75
2023-01-25T08:36:35.389Z,100745.73
2023-01-25T08:41:43.093Z,100748.94
2023-01-25T08:46:51.518Z,100744.12
2023-01-25T08:51:59.680Z,100742.70
2023-01-25T08:57:07.972Z,100739.69
2023-01-25T09:02:15.875Z,100740.02
2023-01-25T09:07:23.187Z,100742.77
2023-01-25T09:12:28.711Z,100734.63
2023-01-25T09:17:39.296Z,100728.38
2023-01-25T09:22:47.013Z,100730.25
2023-01-25T09:27:54.742Z,100721.11
2023-01-25T09:33:05.022Z,100716.11
2023-01-25T09:38:12.761Z,100713.64
2023-01-25T09:43:32.939Z,100702.59
2023-01-25T09:48:48.625Z,100700.16
2023-01-25T09:53:58.746Z,100690.23
2023-01-25T09:59:13.363Z,100688.13
2023-01-25T10:04:24.157Z,100677.89
2023-01-25T10:09:40.723Z,100663.91
2023-01-25T10:14:49.259Z,100650.36
2023-01-25T10:20:10.820Z,100644.66
2023-01-25T10:25:33.480Z,100637.13
2023-01-25T10:30:44.584Z,100631.35
2023-01-25T10:35:53.417Z,100628.83
2023-01-25T10:41:05.771Z,100620.47
2023-01-25T10:46:23.217Z,100611.39
2023-01-25T10:51:32.056Z,100608.64
2023-01-25T10:56:43.729Z,100608.12
2023-01-25T11:01:51.430Z,100607.20
2023-01-25T11:06:59.316Z,100602.79
2023-01-25T11:12:18.243Z,100594.39
2023-01-25T11:17:32.411Z,100582.89
2023-01-25T11:22:50.152Z,100575.70
2023-01-25T11:28:16.118Z,100563.05
2023-01-25T11:33:28.167Z,100553.85
2023-01-25T11:38:36.018Z,100543.20
2023-01-25T11:44:05.020Z,100540.20
2023-01-25T11:49:27.809Z,100532.43
2023-01-25T11:54:59.049Z,100524.21
2023-01-25T12:00:24.592Z,100519.56
2023-01-25T12:05:55.342Z,100514.55
2023-01-25T12:11:09.805Z,100512.09
2023-01-25T12:16:45.242Z,100505.77
2023-01-25T12:22:16.424Z,100489.27
2023-01-25T12:27:39.923Z,100469.38
2023-01-25T12:32:55.461Z,100469.22
2023-01-25T12:38:14.888Z,100459.27
2023-01-25T12:43:28.753Z,100447.84
2023-01-25T12:48:42.791Z,100447.25
2023-01-25T12:53:52.170Z,100441.56
2023-01-25T12:59:08.695Z,100443.79
2023-01-25T13:04:27.458Z,100440.34
2023-01-25T13:09:41.216Z,100436.73
2023-01-25T13:14:48.799Z,100433.38
2023-01-25T13:19:56.641Z,100429.73
2023-01-25T13:25:22.993Z,100426.70
2023-01-25T13:30:52.296Z,100416.44
2023-01-25T13:36:20.579Z,100408.91
2023-01-25T13:41:28.999Z,100406.61
2023-01-25T13:46:36.509Z,100402.63
2023-01-25T13:51:44.841Z,100404.41
2023-01-25T13:57:06.417Z,100391.80
2023-01-25T14:02:20.521Z,100388.17
2023-01-25T14:07:37.168Z,100388.48
2023-01-25T14:21:10.682Z,100373.31
2023-01-25T14:26:26.692Z,100370.46
2023-01-25T14:31:36.614Z,100358.77
2023-01-25T14:36:44.088Z,100354.54
2023-01-25T14:42:00.823Z,100349.79
2023-01-25T14:47:29.858Z,100350.62
2023-01-25T14:52:40.757Z,100348.40
2023-01-25T14:57:49.410Z,100343.30
2023-01-25T15:02:59.023Z,100347.84
2023-01-25T15:08:29.460Z,100339.25
2023-01-25T15:13:37.092Z,100342.02
2023-01-25T15:18:53.095Z,100334.95
2023-01-25T15:24:05.107Z,100325.28
2023-01-25T15:29:16.430Z,100322.52
2023-01-25T15:34:26.219Z,100315.58
2023-01-25T15:39:35.276Z,100311.20
2023-01-25T15:44:42.957Z,100308.54
2023-01-25T15:49:50.185Z,100308.29
2023-01-25T15:55:01.406Z,100303.27
2023-01-25T16:00:21.528Z,100291.83
2023-01-25T16:05:29.682Z,100291.39
2023-01-25T16:10:37.217Z,100286.20
2023-01-25T16:15:49.707Z,100285.30
2023-01-25T16:20:57.557Z,100276.55
2023-01-25T16:26:05.504Z,100275.59
2023-01-25T16:31:30.847Z,100268.83
2023-01-25T16:36:39.753Z,100259.82
2023-01-25T16:41:47.684Z,100263.10
2023-01-25T16:46:55.601Z,100259.77
2023-01-25T16:52:03.706Z,100243.77
2023-01-25T16:57:20.305Z,100239.05
2023-01-25T17:02:28.452Z,100232.35
2023-01-25T17:07:36.326Z,100222.92
2023-01-25T17:12:45.634Z,100223.49
2023-01-25T17:17:52.949Z,100216.47
2023-01-25T17:23:00.337Z,100210.91
2023-01-25T17:28:07.470Z,100206.83
2023-01-25T17:33:17.513Z,100200.20
2023-01-25T17:38:24.764Z,100194.25
2023-01-25T17:43:34.367Z,100193.52
2023-01-25T17:48:42.751Z,100184.61
2023-01-25T17:53:50.049Z,100174.09
2023-01-25T17:58:58.567Z,100167.20
2023-01-25T18:04:09.804Z,100168.23
2023-01-25T18:09:17.725Z,100170.80
2023-01-25T18:14:24.997Z,100170.83
2023-01-25T18:19:33.228Z,100161.44
2023-01-25T18:24:41.034Z,100154.15
2023-01-25T18:29:53.983Z,100150.23
2023-01-25T18:35:01.304Z,100142.02
2023-01-25T18:40:11.891Z,100134.45
2023-01-25T18:45:19.376Z,100125.88
2023-01-25T18:50:26.900Z,100125.84
2023-01-25T18:55:34.377Z,100120.92
2023-01-25T19:00:41.691Z,100114.61
2023-01-25T19:05:54.649Z,100115.35
2023-01-25T19:11:06.312Z,100104.25
2023-01-25T19:16:15.832Z,100104.31
2023-01-25T19:21:25.526Z,100098.92
2023-01-25T19:26:33.054Z,100092.90
2023-01-25T19:31:41.197Z,100086.92
2023-01-25T19:36:50.275Z,100078.20
2023-01-25T19:41:58.183Z,100077.66
2023-01-25T19:47:06.020Z,100071.34
2023-01-25T19:52:13.691Z,100071.87
2023-01-25T19:57:20.934Z,100071.98
2023-01-25T20:02:28.397Z,100065.98
2023-01-25T20:07:35.869Z,100066.20
2023-01-25T20:12:43.214Z,100059.06
2023-01-25T20:17:50.673Z,100051.30
2023-01-25T20:22:57.774Z,100048.67
2023-01-25T20:28:03.413Z,100047.56
2023-01-25T20:33:10.485Z,100041.57
2023-01-25T20:38:18.543Z,100038.33
2023-01-25T20:43:26.608Z,100033.23
2023-01-25T20:48:36.667Z,100024.96
2023-01-25T20:53:45.400Z,100023.46
2023-01-25T20:58:54.175Z,100019.11
2023-01-25T21:04:01.646Z,100020.75
2023-01-25T21:09:08.904Z,100020.97
2023-01-25T21:14:18.049Z,100016.84
2023-01-25T21:19:28.237Z,100007.35
2023-01-25T21:24:35.756Z,100002.55
2023-01-25T21:29:44.059Z,99998.73
2023-01-25T21:34:51.571Z,99993.14
2023-01-25T21:39:58.875Z,99996.55
2023-01-25T21:45:25.229Z,99993.20
2023-01-25T21:50:50.342Z,99988.20
2023-01-25T21:55:59.706Z,99985.18
2023-01-25T22:01:10.365Z,99977.30
2023-01-25T22:06:18.822Z,99967.84
2023-01-25T22:11:26.434Z,99965.04
2023-01-25T22:16:33.797Z,99961.46
2023-01-25T22:21:41.301Z,99959.89
2023-01-25T22:26:59.390Z,99955.21
2023-01-25T22:32:07.110Z,99945.77
2023-01-25T22:37:14.695Z,99940.77
2023-01-25T22:42:22.003Z,99936.27
2023-01-25T22:47:30.168Z,99930.00
2023-01-25T22:52:38.038Z,99934.48
2023-01-25T22:57:45.690Z,99928.44
2023-01-25T23:02:53.327Z,99920.33
2023-01-25T23:08:00.712Z,99912.58
2023-01-25T23:13:08.376Z,99910.23
2023-01-25T23:18:33.232Z,99905.52
2023-01-25T23:23:41.079Z,99896.70
2023-01-25T23:28:53.705Z,99885.42
2023-01-25T23:34:05.096Z,99884.89
2023-01-25T23:39:14.798Z,99875.35
2023-01-25T23:44:22.902Z,99871.62
2023-01-25T23:49:30.632Z,99867.02
2023-01-25T23:54:38.649Z,99860.77
2023-01-25T23:59:45.926Z,99861.94
